Time;durP1;ratioP1;P1;durP2;ratioP2;P2;SDS_P1;SDS_P2;PMS_P1;PMS_P2;Temp;Humidity;BMP_temperature;BMP_pressure;BME280_temperature;BME280_humidity;BME280_pressure;Samples;Min_cycle;Max_cycle;Signal;HPM_P1;HPM_P2
2020/12/31 00:01:23;;;;;;;60.42;22.83;;;11.50;79.80;;;;;;5117236;28;20413;-75
2020/12/31 00:03:48;;;;;;;85.32;31.45;;;11.50;79.70;;;;;;5115997;28;20106;-75
2020/12/31 00:06:14;;;;;;;75.35;27.42;;;11.50;79.90;;;;;;5115867;28;20505;-74
2020/12/31 00:08:40;;;;;;;92.25;33.92;;;11.50;79.80;;;;;;5116177;28;20066;-74
2020/12/31 00:11:06;;;;;;;69.35;27.85;;;11.50;79.50;;;;;;5117050;28;20466;-74
2020/12/31 00:13:32;;;;;;;56.92;21.73;;;11.50;79.60;;;;;;5117225;28;20027;-74
2020/12/31 00:15:58;;;;;;;45.78;22.33;;;11.50;79.50;;;;;;5116133;28;20107;-74
2020/12/31 00:18:25;;;;;;;45.42;18.95;;;11.50;79.60;;;;;;5116841;28;20028;-74
2020/12/31 00:20:50;;;;;;;37.50;16.35;;;11.50;79.40;;;;;;5116031;28;20069;-74
2020/12/31 00:27:06;;;;;;;36.47;14.85;;;11.40;79.20;;;;;;5123405;28;20081;-73
2020/12/31 00:29:31;;;;;;;40.05;15.73;;;11.40;79.10;;;;;;5132753;28;20031;-72
2020/12/31 00:31:57;;;;;;;37.40;16.42;;;11.40;79.00;;;;;;5131652;28;20028;-72
2020/12/31 00:34:23;;;;;;;50.55;20.15;;;11.40;78.90;;;;;;5128377;28;20054;-76
2020/12/31 00:36:50;;;;;;;37.60;17.63;;;11.30;78.90;;;;;;5122818;28;20103;-74
2020/12/31 00:39:15;;;;;;;42.13;18.23;;;11.30;78.90;;;;;;5115188;28;20064;-74
2020/12/31 00:41:41;;;;;;;48.83;20.08;;;11.30;78.80;;;;;;5119463;28;20476;-74
2020/12/31 00:44:07;;;;;;;49.17;20.10;;;11.30;78.80;;;;;;5116445;28;20106;-75
2020/12/31 00:46:33;;;;;;;49.97;19.83;;;11.20;78.70;;;;;;5116104;28;20027;-74
2020/12/31 00:48:59;;;;;;;53.65;21.88;;;11.20;78.70;;;;;;5116339;28;20024;-74
2020/12/31 00:51:24;;;;;;;44.88;19.40;;;11.20;78.80;;;;;;5115742;28;20036;-75
2020/12/31 00:53:50;;;;;;;37.28;16.48;;;11.10;78.70;;;;;;5115753;28;20480;-74
2020/12/31 00:56:16;;;;;;;49.75;19.85;;;11.10;78.70;;;;;;5115326;28;20035;-73
2020/12/31 00:58:41;;;;;;;39.28;17.83;;;11.00;78.80;;;;;;5113891;28;20028;-74
2020/12/31 01:01:07;;;;;;;32.85;15.68;;;11.00;78.80;;;;;;5115332;28;20035;-74
2020/12/31 01:03:33;;;;;;;36.88;16.98;;;10.90;78.70;;;;;;5115986;28;20020;-74
2020/12/31 01:05:59;;;;;;;43.45;17.73;;;10.90;78.90;;;;;;5115962;28;20446;-75
2020/12/31 01:08:26;;;;;;;54.10;21.27;;;10.80;78.80;;;;;;5115715;28;20032;-74
2020/12/31 01:10:52;;;;;;;54.97;21.10;;;10.80;78.80;;;;;;5113441;28;20035;-75
2020/12/31 01:13:18;;;;;;;56.72;22.98;;;10.70;78.80;;;;;;5116009;28;20023;-74
2020/12/31 01:15:43;;;;;;;53.38;22.13;;;10.70;78.90;;;;;;5114932;28;20028;-74
2020/12/31 01:18:09;;;;;;;57.00;23.08;;;10.70;79.10;;;;;;5115698;28;20420;-75
2020/12/31 01:20:35;;;;;;;54.95;24.92;;;10.60;79.10;;;;;;5113599;28;20027;-74
2020/12/31 01:23:05;;;;;;;53.03;23.38;;;10.60;79.20;;;;;;5115097;28;20404;-74
2020/12/31 01:25:31;;;;;;;56.08;22.67;;;10.60;79.30;;;;;;5114693;28;20024;-76
2020/12/31 01:27:57;;;;;;;39.25;18.25;;;10.60;79.30;;;;;;5115000;28;20027;-74
2020/12/31 01:30:23;;;;;;;38.65;19.90;;;10.60;79.30;;;;;;5115210;28;20058;-75
2020/12/31 01:32:48;;;;;;;42.60;19.05;;;10.60;79.20;;;;;;5113159;28;20169;-75
2020/12/31 01:35:14;;;;;;;41.78;19.17;;;10.50;79.10;;;;;;5115290;28;20055;-74
2020/12/31 01:37:40;;;;;;;46.85;19.70;;;10.50;79.00;;;;;;5114571;28;20068;-75
2020/12/31 01:40:05;;;;;;;43.08;19.48;;;10.40;79.00;;;;;;5115646;28;20482;-75
2020/12/31 01:42:31;;;;;;;42.95;20.08;;;10.30;79.10;;;;;;5113522;28;20038;-75
2020/12/31 01:44:57;;;;;;;34.80;17.73;;;10.20;79.10;;;;;;5114967;28;20035;-75
2020/12/31 01:47:22;;;;;;;41.95;18.33;;;10.20;79.10;;;;;;5115024;28;20019;-75
2020/12/31 01:49:50;;;;;;;50.33;22.27;;;10.20;79.40;;;;;;5114133;28;20483;-75
2020/12/31 01:52:17;;;;;;;51.10;21.50;;;10.10;79.40;;;;;;5114371;28;20024;-75
2020/12/31 01:54:46;;;;;;;43.08;20.05;;;10.10;79.50;;;;;;5113335;28;20123;-75
2020/12/31 01:57:12;;;;;;;38.13;17.90;;;10.00;79.50;;;;;;5114682;28;20024;-74
2020/12/31 01:59:38;;;;;;;41.10;18.35;;;10.00;79.50;;;;;;5114251;28;20171;-78
2020/12/31 02:02:04;;;;;;;35.85;15.93;;;10.00;79.60;;;;;;5115146;28;20115;-73
2020/12/31 02:04:30;;;;;;;35.78;16.45;;;9.90;79.70;;;;;;5114209;28;20028;-74
2020/12/31 02:06:56;;;;;;;39.90;18.63;;;9.90;79.80;;;;;;5114572;28;20023;-74
2020/12/31 02:09:22;;;;;;;33.72;17.35;;;9.90;79.70;;;;;;5113462;28;20422;-74
2020/12/31 02:11:48;;;;;;;40.47;19.30;;;9.90;79.80;;;;;;5114520;28;20061;-74
2020/12/31 02:14:13;;;;;;;56.08;21.33;;;9.90;79.80;;;;;;5112747;27;20027;-76
2020/12/31 02:16:41;;;;;;;57.92;21.58;;;9.80;79.70;;;;;;5103404;28;20035;-80
2020/12/31 02:19:14;;;;;;;45.53;22.17;;;9.80;79.80;;;;;;5102217;28;20038;-76
2020/12/31 02:21:57;;;;;;;43.10;19.60;;;9.80;79.90;;;;;;5102619;28;20031;-76
2020/12/31 02:24:23;;;;;;;33.50;15.32;;;9.70;79.90;;;;;;5102784;28;20142;-75
2020/12/31 02:26:49;;;;;;;33.15;16.23;;;9.70;80.00;;;;;;5103792;28;20099;-76
2020/12/31 02:29:16;;;;;;;40.60;17.05;;;9.70;80.10;;;;;;5102503;28;20020;-76
2020/12/31 02:31:43;;;;;;;38.33;17.98;;;9.70;80.10;;;;;;5102192;28;20379;-74
2020/12/31 02:34:09;;;;;;;40.80;18.33;;;9.70;80.10;;;;;;5102407;28;20050;-75
2020/12/31 02:36:38;;;;;;;37.60;17.85;;;9.60;80.10;;;;;;5102127;28;20079;-75
2020/12/31 02:39:09;;;;;;;50.53;19.45;;;9.60;80.20;;;;;;5101768;28;20115;-75
2020/12/31 02:41:36;;;;;;;51.47;19.42;;;9.60;80.30;;;;;;5104388;28;20082;-77
2020/12/31 02:44:03;;;;;;;59.58;22.55;;;9.50;80.30;;;;;;5102425;28;20030;-76
2020/12/31 02:46:29;;;;;;;62.10;22.55;;;9.50;80.30;;;;;;5102256;28;20020;-74
2020/12/31 02:48:55;;;;;;;55.90;21.48;;;9.50;80.30;;;;;;5101987;28;20028;-76
2020/12/31 02:51:21;;;;;;;53.10;20.52;;;9.50;80.30;;;;;;5102615;28;20043;-74
2020/12/31 02:53:47;;;;;;;57.70;23.08;;;9.50;80.40;;;;;;5103208;28;20103;-75
2020/12/31 02:56:18;;;;;;;52.38;21.63;;;9.50;80.30;;;;;;5101892;28;20078;-74
2020/12/31 02:58:44;;;;;;;53.22;22.40;;;9.50;80.30;;;;;;5102638;28;20051;-74
2020/12/31 03:01:10;;;;;;;60.42;22.60;;;9.40;80.30;;;;;;5102258;28;20108;-75
2020/12/31 03:03:37;;;;;;;53.35;21.35;;;9.40;80.30;;;;;;5102220;28;20046;-75
2020/12/31 03:06:03;;;;;;;57.25;23.30;;;9.40;80.40;;;;;;5104882;28;20023;-74
2020/12/31 03:08:29;;;;;;;37.72;17.92;;;9.30;80.50;;;;;;5102189;28;20102;-74
2020/12/31 03:10:56;;;;;;;42.75;20.25;;;9.30;80.40;;;;;;5100636;28;20726;-75
2020/12/31 03:13:23;;;;;;;41.40;16.80;;;9.30;80.40;;;;;;5102871;28;20016;-75
2020/12/31 03:15:51;;;;;;;42.83;18.42;;;9.30;80.50;;;;;;5101015;28;20020;-75
2020/12/31 03:18:16;;;;;;;35.47;15.25;;;9.30;80.60;;;;;;5106762;28;20447;-74
2020/12/31 03:20:43;;;;;;;37.47;16.63;;;9.20;80.60;;;;;;5114723;28;20039;-74
2020/12/31 03:23:11;;;;;;;42.80;18.15;;;9.20;80.70;;;;;;5116441;28;20121;-74
2020/12/31 03:25:37;;;;;;;45.03;19.90;;;9.20;80.80;;;;;;5117329;28;20028;-75
2020/12/31 03:28:03;;;;;;;54.03;20.48;;;9.20;80.80;;;;;;5117431;28;20066;-74
2020/12/31 03:30:30;;;;;;;45.97;19.33;;;9.20;80.90;;;;;;5117890;28;20459;-75
2020/12/31 03:32:55;;;;;;;49.50;20.25;;;9.20;80.90;;;;;;5116994;28;20044;-74
2020/12/31 03:35:21;;;;;;;42.25;18.15;;;9.20;80.90;;;;;;5117027;28;20438;-74
2020/12/31 03:37:47;;;;;;;43.78;18.27;;;9.20;80.90;;;;;;5117291;28;20026;-76
2020/12/31 03:40:12;;;;;;;41.63;17.20;;;9.10;80.80;;;;;;5115703;28;20027;-74
2020/12/31 03:42:38;;;;;;;34.15;16.90;;;9.20;80.90;;;;;;5117445;28;20089;-76
2020/12/31 03:45:04;;;;;;;41.95;17.08;;;9.10;80.90;;;;;;5117509;28;20077;-74
2020/12/31 03:47:29;;;;;;;29.92;16.10;;;9.10;80.90;;;;;;5116160;28;20035;-74
2020/12/31 03:49:55;;;;;;;36.08;16.48;;;9.10;80.90;;;;;;5117164;28;20107;-74
2020/12/31 03:52:21;;;;;;;37.38;17.00;;;9.00;81.00;;;;;;5116744;28;20142;-74
2020/12/31 03:54:46;;;;;;;46.83;20.48;;;9.00;81.10;;;;;;5115868;28;20463;-74
2020/12/31 03:57:12;;;;;;;46.42;19.88;;;9.00;81.10;;;;;;5116872;28;20493;-74
2020/12/31 03:59:38;;;;;;;39.83;17.85;;;9.00;81.10;;;;;;5115804;28;20110;-75
2020/12/31 04:02:03;;;;;;;40.08;17.92;;;9.00;81.10;;;;;;5116118;28;20066;-74
2020/12/31 04:04:29;;;;;;;38.05;18.17;;;9.00;81.10;;;;;;5117205;28;20406;-75
2020/12/31 04:06:55;;;;;;;38.92;19.13;;;9.00;81.10;;;;;;5116612;28;20020;-75
2020/12/31 04:09:20;;;;;;;40.65;18.88;;;8.90;81.10;;;;;;5116532;28;20467;-74
2020/12/31 04:11:46;;;;;;;45.47;17.50;;;8.90;81.10;;;;;;5115747;28;20352;-75
2020/12/31 04:14:12;;;;;;;39.17;17.58;;;8.90;81.20;;;;;;5116431;28;20106;-74
2020/12/31 04:16:37;;;;;;;32.95;16.67;;;8.90;81.20;;;;;;5116675;27;20019;-74
2020/12/31 04:19:03;;;;;;;39.80;16.80;;;8.90;81.10;;;;;;5116361;28;20157;-74
2020/12/31 04:21:28;;;;;;;25.80;12.38;;;8.80;81.10;;;;;;5116953;28;20084;-74
2020/12/31 04:23:54;;;;;;;26.17;13.02;;;8.80;80.90;;;;;;5116130;28;20027;-75
2020/12/31 04:26:20;;;;;;;25.70;13.30;;;8.80;81.00;;;;;;5116598;28;20024;-75
2020/12/31 04:28:45;;;;;;;24.55;12.63;;;8.70;80.90;;;;;;5116400;28;20540;-76
2020/12/31 04:31:11;;;;;;;35.88;14.82;;;8.70;80.90;;;;;;5114435;28;20370;-75
2020/12/31 04:33:37;;;;;;;32.83;16.52;;;8.60;80.80;;;;;;5115757;28;20043;-75
2020/12/31 04:36:02;;;;;;;31.40;16.00;;;8.60;80.90;;;;;;5114682;28;20027;-74
2020/12/31 04:38:28;;;;;;;34.72;16.27;;;8.60;81.00;;;;;;5116182;28;20026;-75
2020/12/31 04:40:54;;;;;;;37.55;16.25;;;8.60;81.10;;;;;;5115771;28;20031;-75
2020/12/31 04:43:21;;;;;;;36.35;16.17;;;8.60;81.20;;;;;;5116143;28;20034;-74
2020/12/31 04:45:47;;;;;;;32.63;16.83;;;8.60;81.30;;;;;;5115975;28;20027;-74
2020/12/31 04:48:31;;;;;;;35.65;17.13;;;8.50;81.30;;;;;;5115378;28;20020;-75
2020/12/31 04:50:58;;;;;;;37.33;18.33;;;8.50;81.50;;;;;;5115876;28;20374;-75
2020/12/31 04:53:25;;;;;;;40.47;18.50;;;8.50;81.40;;;;;;5116140;28;20028;-75
2020/12/31 04:55:51;;;;;;;39.33;17.38;;;8.50;81.50;;;;;;5115317;28;20538;-75
2020/12/31 04:58:17;;;;;;;44.63;19.67;;;8.50;81.60;;;;;;5115411;28;20028;-74
2020/12/31 05:00:44;;;;;;;46.10;21.00;;;8.50;81.70;;;;;;5115769;28;20356;-74
2020/12/31 05:03:10;;;;;;;39.75;18.60;;;8.50;81.40;;;;;;5115864;28;20024;-74
2020/12/31 05:05:37;;;;;;;43.60;19.42;;;8.50;81.50;;;;;;5115800;28;20027;-75
2020/12/31 05:08:04;;;;;;;34.33;17.42;;;8.50;81.50;;;;;;5115707;28;20023;-75
2020/12/31 05:10:31;;;;;;;30.77;15.85;;;8.40;81.50;;;;;;5115574;27;20035;-75
2020/12/31 05:13:07;;;;;;;35.85;17.08;;;8.40;81.50;;;;;;5115683;28;20038;-74
2020/12/31 05:15:37;;;;;;;28.52;14.88;;;8.40;81.40;;;;;;5114557;28;20024;-74
2020/12/31 05:18:23;;;;;;;32.45;14.98;;;8.40;81.40;;;;;;5115460;28;20024;-75
2020/12/31 05:20:56;;;;;;;33.65;16.05;;;8.40;81.40;;;;;;5113434;28;20027;-75
2020/12/31 05:23:29;;;;;;;33.25;16.90;;;8.40;81.40;;;;;;5113837;28;20032;-75
2020/12/31 05:25:56;;;;;;;27.30;15.13;;;8.30;81.40;;;;;;5115114;28;20023;-75
2020/12/31 05:28:37;;;;;;;25.10;14.40;;;8.40;81.40;;;;;;5115561;28;20024;-74
2020/12/31 05:31:10;;;;;;;33.38;15.95;;;8.30;81.40;;;;;;5113930;28;20463;-75
2020/12/31 05:33:38;;;;;;;27.50;14.30;;;8.30;81.50;;;;;;5115091;28;20153;-75
2020/12/31 05:36:25;;;;;;;28.40;14.73;;;8.30;81.40;;;;;;5113386;28;20031;-75
2020/12/31 05:39:03;;;;;;;26.23;13.75;;;8.20;81.50;;;;;;5114460;28;20039;-76
2020/12/31 05:41:33;;;;;;;31.35;14.93;;;8.20;81.40;;;;;;5114524;28;20093;-76
2020/12/31 05:44:00;;;;;;;32.17;14.63;;;8.20;81.50;;;;;;5102081;28;20429;-75
2020/12/31 05:46:27;;;;;;;28.60;13.40;;;8.20;81.50;;;;;;5113673;28;20374;-75
2020/12/31 05:48:59;;;;;;;31.85;16.02;;;8.20;81.60;;;;;;5098501;28;20107;-75
2020/12/31 05:51:29;;;;;;;31.15;15.32;;;8.10;81.50;;;;;;5094352;28;20581;-75
2020/12/31 05:54:11;;;;;;;33.42;15.73;;;8.20;81.70;;;;;;5094280;28;20103;-75
2020/12/31 05:56:38;;;;;;;33.20;16.45;;;8.10;81.80;;;;;;5093165;28;20420;-74
2020/12/31 05:59:16;;;;;;;40.47;18.13;;;8.10;81.80;;;;;;5094161;28;20040;-75
2020/12/31 06:01:54;;;;;;;49.28;19.58;;;8.10;81.80;;;;;;5093917;28;20024;-74
2020/12/31 06:04:28;;;;;;;40.00;19.63;;;8.20;81.90;;;;;;5095402;28;20123;-75
2020/12/31 06:06:58;;;;;;;41.53;19.08;;;8.20;82.00;;;;;;5094172;28;20024;-75
2020/12/31 06:09:35;;;;;;;38.25;17.83;;;8.20;82.00;;;;;;5094737;28;20044;-76
2020/12/31 06:12:08;;;;;;;35.35;16.40;;;8.20;81.80;;;;;;5107428;28;20035;-77
2020/12/31 06:14:37;;;;;;;33.25;16.60;;;8.20;81.70;;;;;;5114720;28;20032;-74
2020/12/31 06:17:05;;;;;;;49.38;21.00;;;8.20;81.70;;;;;;5085028;28;20050;-75
2020/12/31 06:19:40;;;;;;;48.97;23.15;;;8.20;81.70;;;;;;5112714;28;20036;-75
2020/12/31 06:22:08;;;;;;;38.83;18.35;;;8.20;81.60;;;;;;5114354;28;20051;-76
2020/12/31 06:24:38;;;;;;;47.03;21.50;;;8.20;81.60;;;;;;5114612;28;20024;-74
2020/12/31 06:27:08;;;;;;;50.95;22.45;;;8.30;81.80;;;;;;5114390;28;20118;-75
2020/12/31 06:29:43;;;;;;;50.53;22.23;;;8.30;81.90;;;;;;5114284;28;20031;-75
2020/12/31 06:32:22;;;;;;;48.03;22.02;;;8.30;82.00;;;;;;5112849;28;20032;-75
2020/12/31 06:34:48;;;;;;;37.30;20.48;;;8.40;82.00;;;;;;5112538;28;20462;-75
2020/12/31 06:37:14;;;;;;;44.05;22.05;;;8.40;81.90;;;;;;5112822;28;20039;-76
2020/12/31 06:39:41;;;;;;;46.72;21.38;;;8.50;81.70;;;;;;5114370;28;20364;-75
2020/12/31 06:42:07;;;;;;;50.65;21.38;;;8.60;81.60;;;;;;5113205;28;20050;-74
2020/12/31 06:44:33;;;;;;;40.17;18.35;;;8.60;81.60;;;;;;5114039;28;20024;-75
2020/12/31 06:46:59;;;;;;;63.05;22.45;;;8.60;81.60;;;;;;5113874;28;20020;-76
2020/12/31 06:49:57;;;;;;;68.38;26.23;;;8.70;81.70;;;;;;5113817;28;20024;-75
2020/12/31 06:52:24;;;;;;;55.17;23.05;;;8.80;81.50;;;;;;5090456;28;20510;-75
2020/12/31 06:54:50;;;;;;;43.00;19.92;;;8.80;81.40;;;;;;5113558;28;20027;-75
2020/12/31 06:57:38;;;;;;;48.42;21.45;;;8.90;81.10;;;;;;5113618;28;20020;-75
2020/12/31 07:00:07;;;;;;;48.55;21.40;;;8.90;80.90;;;;;;5113629;28;20593;-71
2020/12/31 07:02:45;;;;;;;44.88;21.63;;;9.00;81.70;;;;;;5113825;28;20028;-71
2020/12/31 07:05:22;;;;;;;42.65;20.10;;;9.00;80.80;;;;;;5112149;28;20024;-72
2020/12/31 07:07:48;;;;;;;39.92;19.48;;;9.10;80.70;;;;;;5114317;28;20084;-72
2020/12/31 07:10:14;;;;;;;38.00;21.08;;;9.10;80.50;;;;;;5112019;28;20382;-73
2020/12/31 07:12:47;;;;;;;44.17;20.38;;;9.20;80.70;;;;;;5113502;28;20036;-72
2020/12/31 07:15:17;;;;;;;49.00;21.67;;;9.30;80.30;;;;;;5110162;28;20031;-74
2020/12/31 07:17:47;;;;;;;41.17;18.80;;;9.30;80.30;;;;;;5103370;28;20031;-73
2020/12/31 07:20:16;;;;;;;43.45;19.17;;;9.40;80.00;;;;;;5100548;28;20062;-74
2020/12/31 07:22:46;;;;;;;40.97;18.73;;;9.40;79.90;;;;;;5100907;28;20047;-73
2020/12/31 07:25:17;;;;;;;34.08;18.17;;;9.40;79.80;;;;;;5102077;28;20400;-78
2020/12/31 07:27:44;;;;;;;36.38;17.58;;;9.40;79.50;;;;;;5100860;28;20032;-75
2020/12/31 07:30:14;;;;;;;41.38;19.25;;;9.40;79.40;;;;;;5105232;28;20029;-77
2020/12/31 07:33:01;;;;;;;34.63;17.55;;;9.40;79.30;;;;;;5104381;28;20111;-77
2020/12/31 07:35:37;;;;;;;33.25;15.30;;;9.40;79.10;;;;;;5103413;28;20032;-76
2020/12/31 07:38:10;;;;;;;37.67;16.63;;;9.40;79.20;;;;;;5108738;28;20039;-78
2020/12/31 07:40:40;;;;;;;31.73;14.52;;;9.50;79.60;;;;;;5104191;28;20020;-77
2020/12/31 07:43:11;;;;;;;35.22;18.08;;;9.50;78.80;;;;;;5110223;28;20458;-75
2020/12/31 07:45:37;;;;;;;31.20;16.08;;;9.50;78.70;;;;;;5113474;28;20027;-76
2020/12/31 07:48:03;;;;;;;44.58;18.70;;;9.50;78.30;;;;;;5104128;28;20029;-76
2020/12/31 07:50:29;;;;;;;36.90;17.58;;;9.40;78.40;;;;;;5092977;28;20058;-74
2020/12/31 07:52:58;;;;;;;33.10;16.33;;;9.40;78.50;;;;;;5093765;28;20024;-76
2020/12/31 07:55:24;;;;;;;52.28;20.50;;;9.40;78.70;;;;;;5101577;28;20028;-74
2020/12/31 07:57:50;;;;;;;45.92;18.15;;;9.40;78.70;;;;;;5102963;28;20027;-75
2020/12/31 08:00:21;;;;;;;58.13;23.17;;;9.40;78.70;;;;;;5102840;28;20031;-77
2020/12/31 08:02:54;;;;;;;48.20;21.45;;;9.40;78.70;;;;;;5101006;28;20055;-75
2020/12/31 08:05:24;;;;;;;50.75;22.85;;;9.40;79.00;;;;;;5100807;28;20380;-76
2020/12/31 08:07:51;;;;;;;67.70;26.02;;;9.50;79.20;;;;;;5104725;28;20387;-77
2020/12/31 08:10:17;;;;;;;54.10;22.92;;;9.50;79.10;;;;;;5106907;28;20024;-76
2020/12/31 08:13:05;;;;;;;69.07;27.88;;;9.60;79.20;;;;;;5104578;28;20463;-76
2020/12/31 08:15:31;;;;;;;50.03;20.83;;;9.60;79.30;;;;;;5105266;28;20037;-77
2020/12/31 08:17:58;;;;;;;64.18;25.13;;;9.70;79.30;;;;;;5104908;28;20027;-77
2020/12/31 08:20:34;;;;;;;52.45;24.67;;;9.80;79.00;;;;;;5108073;28;20454;-75
2020/12/31 08:23:05;;;;;;;96.50;34.65;;;9.80;78.90;;;;;;5104155;28;20344;-76
2020/12/31 08:25:37;;;;;;;61.58;23.85;;;9.80;78.70;;;;;;5106102;28;20031;-77
2020/12/31 08:28:05;;;;;;;57.00;24.33;;;9.90;78.90;;;;;;5113681;28;20077;-76
2020/12/31 08:30:32;;;;;;;52.47;23.02;;;9.90;79.00;;;;;;5116744;28;20028;-76
2020/12/31 08:32:59;;;;;;;53.75;22.35;;;9.90;78.80;;;;;;5116135;28;20051;-77
2020/12/31 08:35:36;;;;;;;42.60;19.08;;;10.00;78.60;;;;;;5116737;28;20045;-75
2020/12/31 08:38:06;;;;;;;44.85;19.25;;;10.00;78.30;;;;;;5116382;28;20467;-75
2020/12/31 08:40:39;;;;;;;37.10;18.98;;;10.00;78.40;;;;;;5115162;28;20047;-75
2020/12/31 08:43:08;;;;;;;42.75;21.48;;;10.10;78.50;;;;;;5115064;28;20047;-75
2020/12/31 08:45:34;;;;;;;50.47;20.92;;;10.10;78.30;;;;;;5115481;28;20123;-75
2020/12/31 08:48:28;;;;;;;52.45;21.92;;;10.10;78.40;;;;;;5116397;28;20095;-76
2020/12/31 08:51:11;;;;;;;38.15;19.80;;;10.10;78.20;;;;;;5110117;28;20150;-77
2020/12/31 08:53:57;;;;;;;51.13;22.60;;;10.20;78.30;;;;;;5111086;28;20081;-76
2020/12/31 08:56:30;;;;;;;49.40;23.23;;;10.20;78.00;;;;;;5113471;28;20028;-75
2020/12/31 08:59:16;;;;;;;44.13;21.35;;;10.20;77.90;;;;;;5100089;28;20065;-73
2020/12/31 09:01:43;;;;;;;44.05;20.80;;;10.30;77.90;;;;;;5116297;28;20433;-74
2020/12/31 09:04:17;;;;;;;47.10;20.70;;;10.30;77.60;;;;;;5116780;28;20028;-75
2020/12/31 09:06:48;;;;;;;38.30;18.98;;;10.30;77.80;;;;;;5116022;28;20094;-75
2020/12/31 09:09:22;;;;;;;56.75;23.90;;;10.30;77.30;;;;;;5115845;28;20129;-75
2020/12/31 09:11:53;;;;;;;49.95;19.33;;;10.30;77.40;;;;;;5115457;28;20116;-75
2020/12/31 09:14:19;;;;;;;37.05;18.13;;;10.20;77.10;;;;;;5115573;28;20028;-73
2020/12/31 09:16:45;;;;;;;33.50;16.80;;;10.20;77.20;;;;;;5115702;28;20031;-75
2020/12/31 09:19:10;;;;;;;29.02;16.92;;;10.20;76.90;;;;;;5113565;28;20024;-75
2020/12/31 09:21:36;;;;;;;27.65;15.45;;;10.10;77.00;;;;;;5115740;28;20080;-73
2020/12/31 09:24:34;;;;;;;29.27;13.85;;;10.20;77.40;;;;;;5113928;28;20383;-73
2020/12/31 09:27:00;;;;;;;29.95;14.93;;;10.20;77.40;;;;;;5110760;28;20069;-72
2020/12/31 09:29:26;;;;;;;27.60;15.32;;;10.20;77.40;;;;;;5114938;28;20020;-74
2020/12/31 09:31:53;;;;;;;30.85;15.30;;;10.30;77.40;;;;;;5115284;28;20081;-74
2020/12/31 09:34:19;;;;;;;36.83;15.95;;;10.30;77.20;;;;;;5115200;28;20051;-74
2020/12/31 09:36:45;;;;;;;31.95;16.77;;;10.30;77.00;;;;;;5114580;28;20023;-74
2020/12/31 09:39:11;;;;;;;28.88;14.73;;;10.30;77.10;;;;;;5114750;28;20352;-72
2020/12/31 09:41:38;;;;;;;28.08;15.85;;;10.30;77.90;;;;;;5113728;28;20031;-73
2020/12/31 09:44:04;;;;;;;29.27;14.85;;;10.30;76.90;;;;;;5113586;28;20023;-73
2020/12/31 09:46:30;;;;;;;30.02;15.15;;;10.30;76.90;;;;;;5115108;28;20031;-71
2020/12/31 09:48:56;;;;;;;28.42;14.70;;;10.30;76.80;;;;;;5113416;28;20078;-72
2020/12/31 09:51:22;;;;;;;33.38;15.80;;;10.30;76.80;;;;;;5113178;28;20027;-72
2020/12/31 09:53:50;;;;;;;42.75;18.25;;;10.30;76.70;;;;;;5114170;28;20039;-71
2020/12/31 09:56:17;;;;;;;40.50;18.20;;;10.30;76.60;;;;;;5112467;28;20026;-76
2020/12/31 09:58:42;;;;;;;56.83;23.15;;;10.30;76.80;;;;;;5114372;28;20027;-76
2020/12/31 10:01:09;;;;;;;56.90;20.45;;;10.30;76.80;;;;;;5112803;28;20353;-75
2020/12/31 10:03:35;;;;;;;43.55;19.90;;;10.30;76.90;;;;;;5106235;28;20131;-74
2020/12/31 10:06:01;;;;;;;50.25;21.80;;;10.30;77.00;;;;;;5094266;28;20024;-75
2020/12/31 10:08:27;;;;;;;40.33;19.60;;;10.30;77.10;;;;;;5106500;28;20430;-76
2020/12/31 10:10:53;;;;;;;40.97;19.80;;;10.30;77.00;;;;;;5114419;28;20471;-76
2020/12/31 10:13:18;;;;;;;62.75;22.23;;;10.30;76.80;;;;;;5112879;28;20043;-75
2020/12/31 10:15:44;;;;;;;53.63;22.80;;;10.30;76.90;;;;;;5113449;28;20027;-75
2020/12/31 10:18:10;;;;;;;39.92;17.02;;;10.20;76.90;;;;;;5114089;28;20020;-74
2020/12/31 10:20:36;;;;;;;42.28;18.98;;;10.20;76.90;;;;;;5114604;28;20079;-75
2020/12/31 10:23:03;;;;;;;39.25;18.10;;;10.20;77.10;;;;;;5114455;28;20106;-75
2020/12/31 10:25:29;;;;;;;30.90;14.77;;;10.20;77.30;;;;;;5114612;28;20027;-75
2020/12/31 10:27:54;;;;;;;39.95;18.90;;;10.20;77.30;;;;;;5113010;28;20020;-75
2020/12/31 10:30:20;;;;;;;32.58;16.92;;;10.10;77.30;;;;;;5112103;28;20459;-75
2020/12/31 10:32:46;;;;;;;42.30;19.63;;;10.10;77.50;;;;;;5113677;28;20089;-75
2020/12/31 10:35:11;;;;;;;35.45;17.48;;;10.10;77.50;;;;;;5113961;28;20019;-75
2020/12/31 10:37:37;;;;;;;37.17;18.42;;;10.10;77.80;;;;;;5113686;28;20426;-76
2020/12/31 10:40:04;;;;;;;36.78;17.17;;;10.10;77.90;;;;;;5113132;28;20448;-75
2020/12/31 10:42:30;;;;;;;34.03;16.60;;;10.20;78.00;;;;;;5112402;28;20031;-75
2020/12/31 10:44:56;;;;;;;30.38;16.88;;;10.20;77.90;;;;;;5114632;28;20037;-76
2020/12/31 10:47:22;;;;;;;34.78;16.25;;;10.10;77.70;;;;;;5113510;28;20054;-77
2020/12/31 10:49:47;;;;;;;29.83;16.55;;;10.10;77.80;;;;;;5112774;28;20043;-75
2020/12/31 10:52:13;;;;;;;32.88;16.48;;;10.20;77.90;;;;;;5112916;28;20085;-76
2020/12/31 10:54:39;;;;;;;32.83;15.65;;;10.10;77.80;;;;;;5096814;28;20499;-76
2020/12/31 10:57:04;;;;;;;36.55;16.58;;;10.10;77.60;;;;;;5075758;28;20032;-75
2020/12/31 10:59:31;;;;;;;33.42;15.23;;;10.10;77.70;;;;;;5093573;28;20020;-76
2020/12/31 11:01:57;;;;;;;31.92;16.60;;;10.10;77.90;;;;;;5093392;28;20032;-76
2020/12/31 11:04:22;;;;;;;37.08;16.90;;;10.10;78.10;;;;;;5094547;28;20397;-74
2020/12/31 11:06:48;;;;;;;34.13;16.30;;;10.10;78.20;;;;;;5112838;28;20486;-79
2020/12/31 11:09:15;;;;;;;37.60;18.60;;;10.10;78.10;;;;;;5113089;28;20050;-76
2020/12/31 11:11:42;;;;;;;36.85;17.42;;;10.10;78.20;;;;;;5112631;28;20050;-76
2020/12/31 11:14:10;;;;;;;39.05;17.92;;;10.10;78.40;;;;;;5112819;28;20034;-78
2020/12/31 11:16:35;;;;;;;37.30;18.17;;;10.10;78.20;;;;;;5111448;28;20031;-75
2020/12/31 11:19:01;;;;;;;45.40;22.35;;;10.10;78.50;;;;;;5113010;28;20034;-75
2020/12/31 11:21:27;;;;;;;45.00;21.85;;;10.20;78.40;;;;;;5112954;28;20035;-74
2020/12/31 11:23:53;;;;;;;43.88;19.98;;;10.20;78.20;;;;;;5112483;28;20074;-76
2020/12/31 11:29:04;;;;;;;42.35;18.27;;;10.20;78.20;;;;;;5101542;28;20536;-77
2020/12/31 11:31:31;;;;;;;30.70;16.77;;;10.20;78.10;;;;;;5113331;28;20427;-75
2020/12/31 11:34:00;;;;;;;43.15;18.42;;;10.20;77.80;;;;;;5093132;28;20048;-79
2020/12/31 11:36:26;;;;;;;65.25;23.88;;;10.20;77.90;;;;;;5098146;28;20020;-76
2020/12/31 11:38:55;;;;;;;41.20;20.90;;;10.20;77.90;;;;;;5110172;28;20410;-77
2020/12/31 11:41:22;;;;;;;40.50;17.98;;;10.10;78.20;;;;;;5113658;28;20038;-76
2020/12/31 11:43:48;;;;;;;42.13;19.77;;;10.20;78.40;;;;;;5116693;28;20023;-75
2020/12/31 11:46:15;;;;;;;40.00;20.65;;;10.20;78.60;;;;;;5116616;28;20030;-76
2020/12/31 11:48:41;;;;;;;50.10;21.05;;;10.20;78.60;;;;;;5116737;28;20032;-77
2020/12/31 11:51:11;;;;;;;53.33;22.27;;;10.20;78.10;;;;;;5117607;28;20107;-75
2020/12/31 11:53:38;;;;;;;36.22;18.85;;;10.20;78.70;;;;;;5117067;28;20054;-74
2020/12/31 11:56:04;;;;;;;39.00;20.17;;;10.20;78.20;;;;;;5116637;28;20039;-76
2020/12/31 11:58:31;;;;;;;46.63;20.67;;;10.30;78.30;;;;;;5116509;28;20023;-77
2020/12/31 12:00:57;;;;;;;37.53;18.63;;;10.20;78.20;;;;;;5116208;28;20055;-75
2020/12/31 12:03:27;;;;;;;45.20;21.20;;;10.20;78.20;;;;;;5115595;28;20027;-76
2020/12/31 12:05:54;;;;;;;43.47;21.27;;;10.20;78.40;;;;;;5117299;28;20073;-76
2020/12/31 12:08:22;;;;;;;39.72;19.48;;;10.20;78.40;;;;;;5116418;28;20028;-74
2020/12/31 12:10:49;;;;;;;41.25;19.23;;;10.20;78.40;;;;;;5116009;28;20502;-76
2020/12/31 12:13:15;;;;;;;34.53;17.75;;;10.20;78.50;;;;;;5116239;28;20039;-76
2020/12/31 12:15:41;;;;;;;36.60;17.08;;;10.20;78.40;;;;;;5116009;28;20395;-76
2020/12/31 12:18:07;;;;;;;34.58;16.05;;;10.20;78.50;;;;;;5116467;28;20556;-76
2020/12/31 12:20:33;;;;;;;47.13;19.98;;;10.20;78.30;;;;;;5117161;28;20103;-74
2020/12/31 12:22:59;;;;;;;31.38;15.75;;;10.20;78.30;;;;;;5116724;28;20046;-75
2020/12/31 12:25:24;;;;;;;26.58;14.93;;;10.10;78.50;;;;;;5115231;28;20028;-76
2020/12/31 12:27:50;;;;;;;35.92;16.13;;;10.10;78.70;;;;;;5116545;28;20027;-76
2020/12/31 12:30:16;;;;;;;33.97;16.73;;;10.10;78.60;;;;;;5114567;28;20032;-76
2020/12/31 12:32:45;;;;;;;31.67;15.57;;;10.10;78.70;;;;;;5117229;28;20043;-78
2020/12/31 12:35:12;;;;;;;29.80;15.73;;;10.20;78.90;;;;;;5117070;28;20028;-78
2020/12/31 12:37:38;;;;;;;26.05;15.38;;;10.20;78.80;;;;;;5116347;28;20102;-76
2020/12/31 12:40:06;;;;;;;31.90;16.73;;;10.10;78.40;;;;;;5116615;28;20111;-75
2020/12/31 12:42:33;;;;;;;26.95;15.30;;;10.10;78.50;;;;;;5115634;28;20084;-75
2020/12/31 12:44:59;;;;;;;28.90;15.15;;;10.10;78.80;;;;;;5116248;28;20027;-76